sensor_id;sensor_type;location;lat;lon;timestamp;P1;durP1;ratioP1;P2;durP2;ratioP2
8803;SDS011;4438;50.890;4.726;2023-07-13T00:02:22;5.73;;;2.47;;
8803;SDS011;4438;50.890;4.726;2023-07-13T00:04:48;3.93;;;2.17;;
8803;SDS011;4438;50.890;4.726;2023-07-13T00:07:15;4.23;;;2.10;;
8803;SDS011;4438;50.890;4.726;2023-07-13T00:09:45;4.07;;;2.13;;
8803;SDS011;4438;50.890;4.726;2023-07-13T00:12:22;5.83;;;2.47;;
8803;SDS011;4438;50.890;4.726;2023-07-13T00:14:48;5.17;;;2.53;;
8803;SDS011;4438;50.890;4.726;2023-07-13T00:17:15;3.97;;;2.13;;
8803;SDS011;4438;50.890;4.726;2023-07-13T00:19:41;4.37;;;2.57;;
8803;SDS011;4438;50.890;4.726;2023-07-13T00:22:07;4.30;;;2.60;;
8803;SDS011;4438;50.890;4.726;2023-07-13T00:24:33;5.37;;;2.27;;
8803;SDS011;4438;50.890;4.726;2023-07-13T00:27:01;4.53;;;2.60;;
8803;SDS011;4438;50.890;4.726;2023-07-13T00:29:27;5.70;;;2.30;;
8803;SDS011;4438;50.890;4.726;2023-07-13T00:31:53;3.43;;;2.40;;
8803;SDS011;4438;50.890;4.726;2023-07-13T00:34:19;4.63;;;2.07;;
8803;SDS011;4438;50.890;4.726;2023-07-13T00:36:45;4.60;;;2.67;;
8803;SDS011;4438;50.890;4.726;2023-07-13T00:39:12;6.00;;;2.67;;
8803;SDS011;4438;50.890;4.726;2023-07-13T00:41:38;5.20;;;2.40;;
8803;SDS011;4438;50.890;4.726;2023-07-13T00:44:04;5.07;;;2.77;;
8803;SDS011;4438;50.890;4.726;2023-07-13T00:46:31;6.33;;;2.57;;
8803;SDS011;4438;50.890;4.726;2023-07-13T00:48:58;4.67;;;2.27;;
8803;SDS011;4438;50.890;4.726;2023-07-13T00:51:27;4.20;;;2.23;;
8803;SDS011;4438;50.890;4.726;2023-07-13T00:53:54;6.17;;;2.50;;
8803;SDS011;4438;50.890;4.726;2023-07-13T00:56:22;4.50;;;2.57;;
8803;SDS011;4438;50.890;4.726;2023-07-13T00:58:48;7.67;;;2.93;;
8803;SDS011;4438;50.890;4.726;2023-07-13T01:01:15;4.20;;;2.43;;
8803;SDS011;4438;50.890;4.726;2023-07-13T01:03:44;6.67;;;2.80;;
8803;SDS011;4438;50.890;4.726;2023-07-13T01:06:11;3.90;;;2.50;;
8803;SDS011;4438;50.890;4.726;2023-07-13T01:08:38;4.87;;;2.40;;
8803;SDS011;4438;50.890;4.726;2023-07-13T01:11:05;5.53;;;2.60;;
8803;SDS011;4438;50.890;4.726;2023-07-13T01:13:33;4.87;;;2.60;;
8803;SDS011;4438;50.890;4.726;2023-07-13T01:16:01;6.73;;;2.73;;
8803;SDS011;4438;50.890;4.726;2023-07-13T01:18:28;5.43;;;2.63;;
8803;SDS011;4438;50.890;4.726;2023-07-13T01:20:56;4.83;;;2.57;;
8803;SDS011;4438;50.890;4.726;2023-07-13T01:23:22;4.57;;;2.37;;
8803;SDS011;4438;50.890;4.726;2023-07-13T01:25:49;4.20;;;2.40;;
8803;SDS011;4438;50.890;4.726;2023-07-13T01:28:16;5.30;;;2.50;;
8803;SDS011;4438;50.890;4.726;2023-07-13T01:30:42;5.13;;;2.60;;
8803;SDS011;4438;50.890;4.726;2023-07-13T01:33:11;4.50;;;2.67;;
8803;SDS011;4438;50.890;4.726;2023-07-13T01:35:37;5.07;;;2.40;;
8803;SDS011;4438;50.890;4.726;2023-07-13T01:38:03;5.33;;;2.70;;
8803;SDS011;4438;50.890;4.726;2023-07-13T01:40:30;7.63;;;2.80;;
8803;SDS011;4438;50.890;4.726;2023-07-13T01:42:57;6.83;;;2.50;;
8803;SDS011;4438;50.890;4.726;2023-07-13T01:45:23;5.77;;;2.57;;
8803;SDS011;4438;50.890;4.726;2023-07-13T01:47:50;7.17;;;3.00;;
8803;SDS011;4438;50.890;4.726;2023-07-13T01:50:16;3.97;;;2.90;;
8803;SDS011;4438;50.890;4.726;2023-07-13T01:52:42;6.80;;;2.90;;
8803;SDS011;4438;50.890;4.726;2023-07-13T01:55:08;5.47;;;2.90;;
8803;SDS011;4438;50.890;4.726;2023-07-13T01:57:34;5.73;;;2.70;;
8803;SDS011;4438;50.890;4.726;2023-07-13T02:00:04;5.47;;;2.60;;
8803;SDS011;4438;50.890;4.726;2023-07-13T02:02:31;7.77;;;2.63;;
8803;SDS011;4438;50.890;4.726;2023-07-13T02:04:57;4.67;;;2.73;;
8803;SDS011;4438;50.890;4.726;2023-07-13T02:07:23;3.57;;;2.53;;
8803;SDS011;4438;50.890;4.726;2023-07-13T02:09:49;6.93;;;2.80;;
8803;SDS011;4438;50.890;4.726;2023-07-13T02:12:15;4.43;;;2.50;;
8803;SDS011;4438;50.890;4.726;2023-07-13T02:14:41;6.40;;;2.77;;
8803;SDS011;4438;50.890;4.726;2023-07-13T02:17:09;5.10;;;2.70;;
8803;SDS011;4438;50.890;4.726;2023-07-13T02:19:35;5.47;;;2.93;;
8803;SDS011;4438;50.890;4.726;2023-07-13T02:22:01;5.10;;;2.70;;
8803;SDS011;4438;50.890;4.726;2023-07-13T02:24:27;6.23;;;3.03;;
8803;SDS011;4438;50.890;4.726;2023-07-13T02:26:53;4.27;;;2.83;;
8803;SDS011;4438;50.890;4.726;2023-07-13T02:29:19;3.40;;;2.50;;
8803;SDS011;4438;50.890;4.726;2023-07-13T02:31:45;5.43;;;3.03;;
8803;SDS011;4438;50.890;4.726;2023-07-13T02:34:11;7.80;;;3.43;;
8803;SDS011;4438;50.890;4.726;2023-07-13T02:36:38;7.70;;;3.10;;
8803;SDS011;4438;50.890;4.726;2023-07-13T02:39:04;5.23;;;2.60;;
8803;SDS011;4438;50.890;4.726;2023-07-13T02:41:31;4.87;;;3.10;;
8803;SDS011;4438;50.890;4.726;2023-07-13T02:43:58;6.83;;;3.10;;
8803;SDS011;4438;50.890;4.726;2023-07-13T02:46:31;6.93;;;3.13;;
8803;SDS011;4438;50.890;4.726;2023-07-13T02:48:58;5.27;;;3.10;;
8803;SDS011;4438;50.890;4.726;2023-07-13T02:51:24;6.17;;;3.00;;
8803;SDS011;4438;50.890;4.726;2023-07-13T02:53:50;5.63;;;2.83;;
8803;SDS011;4438;50.890;4.726;2023-07-13T02:56:17;4.37;;;2.97;;
8803;SDS011;4438;50.890;4.726;2023-07-13T02:58:44;6.70;;;3.47;;
8803;SDS011;4438;50.890;4.726;2023-07-13T03:01:10;5.70;;;3.00;;
8803;SDS011;4438;50.890;4.726;2023-07-13T03:03:37;5.57;;;3.00;;
8803;SDS011;4438;50.890;4.726;2023-07-13T03:06:04;7.10;;;3.27;;
8803;SDS011;4438;50.890;4.726;2023-07-13T03:08:32;4.93;;;2.83;;
8803;SDS011;4438;50.890;4.726;2023-07-13T03:11:03;4.67;;;2.80;;
8803;SDS011;4438;50.890;4.726;2023-07-13T03:13:30;5.57;;;2.90;;
8803;SDS011;4438;50.890;4.726;2023-07-13T03:15:56;6.60;;;3.30;;
8803;SDS011;4438;50.890;4.726;2023-07-13T03:18:22;7.53;;;3.30;;
8803;SDS011;4438;50.890;4.726;2023-07-13T03:20:52;6.47;;;3.00;;
8803;SDS011;4438;50.890;4.726;2023-07-13T03:23:18;6.30;;;3.20;;
8803;SDS011;4438;50.890;4.726;2023-07-13T03:25:45;8.57;;;3.70;;
8803;SDS011;4438;50.890;4.726;2023-07-13T03:28:11;6.23;;;2.93;;
8803;SDS011;4438;50.890;4.726;2023-07-13T03:30:37;6.47;;;3.10;;
8803;SDS011;4438;50.890;4.726;2023-07-13T03:33:03;4.10;;;2.57;;
8803;SDS011;4438;50.890;4.726;2023-07-13T03:35:29;6.17;;;3.27;;
8803;SDS011;4438;50.890;4.726;2023-07-13T03:37:57;5.87;;;3.00;;
8803;SDS011;4438;50.890;4.726;2023-07-13T03:40:24;5.27;;;3.57;;
8803;SDS011;4438;50.890;4.726;2023-07-13T03:42:51;5.63;;;3.13;;
8803;SDS011;4438;50.890;4.726;2023-07-13T03:45:18;6.17;;;3.57;;
8803;SDS011;4438;50.890;4.726;2023-07-13T03:47:44;6.67;;;3.20;;
8803;SDS011;4438;50.890;4.726;2023-07-13T03:50:10;6.07;;;2.90;;
8803;SDS011;4438;50.890;4.726;2023-07-13T03:52:36;6.23;;;3.00;;
8803;SDS011;4438;50.890;4.726;2023-07-13T03:55:02;7.00;;;3.40;;
8803;SDS011;4438;50.890;4.726;2023-07-13T03:57:28;4.97;;;2.80;;
8803;SDS011;4438;50.890;4.726;2023-07-13T03:59:54;5.30;;;2.63;;
8803;SDS011;4438;50.890;4.726;2023-07-13T04:02:20;8.37;;;3.10;;
8803;SDS011;4438;50.890;4.726;2023-07-13T04:04:47;5.90;;;3.10;;
8803;SDS011;4438;50.890;4.726;2023-07-13T04:07:13;7.90;;;3.43;;
8803;SDS011;4438;50.890;4.726;2023-07-13T04:09:39;4.97;;;2.87;;
8803;SDS011;4438;50.890;4.726;2023-07-13T04:12:05;6.40;;;3.27;;
8803;SDS011;4438;50.890;4.726;2023-07-13T04:14:31;7.43;;;3.27;;
8803;SDS011;4438;50.890;4.726;2023-07-13T04:16:58;6.37;;;3.33;;
8803;SDS011;4438;50.890;4.726;2023-07-13T04:19:24;7.50;;;3.37;;
8803;SDS011;4438;50.890;4.726;2023-07-13T04:21:50;5.60;;;3.03;;
8803;SDS011;4438;50.890;4.726;2023-07-13T04:24:16;7.23;;;3.20;;
8803;SDS011;4438;50.890;4.726;2023-07-13T04:26:42;6.93;;;3.37;;
8803;SDS011;4438;50.890;4.726;2023-07-13T04:29:08;5.63;;;3.13;;
8803;SDS011;4438;50.890;4.726;2023-07-13T04:31:34;4.10;;;3.20;;
8803;SDS011;4438;50.890;4.726;2023-07-13T04:34:01;8.83;;;3.63;;
8803;SDS011;4438;50.890;4.726;2023-07-13T04:36:28;8.77;;;3.77;;
8803;SDS011;4438;50.890;4.726;2023-07-13T04:38:54;8.07;;;3.43;;
8803;SDS011;4438;50.890;4.726;2023-07-13T04:41:20;6.77;;;3.33;;
8803;SDS011;4438;50.890;4.726;2023-07-13T04:43:47;9.67;;;3.43;;
8803;SDS011;4438;50.890;4.726;2023-07-13T04:46:14;5.80;;;2.80;;
8803;SDS011;4438;50.890;4.726;2023-07-13T04:48:42;6.97;;;3.73;;
8803;SDS011;4438;50.890;4.726;2023-07-13T04:51:08;5.23;;;3.20;;
8803;SDS011;4438;50.890;4.726;2023-07-13T04:53:34;9.10;;;3.83;;
8803;SDS011;4438;50.890;4.726;2023-07-13T04:56:01;6.27;;;3.40;;
8803;SDS011;4438;50.890;4.726;2023-07-13T04:58:27;8.07;;;3.73;;
8803;SDS011;4438;50.890;4.726;2023-07-13T05:00:53;8.20;;;3.63;;
8803;SDS011;4438;50.890;4.726;2023-07-13T05:03:24;6.50;;;3.57;;
8803;SDS011;4438;50.890;4.726;2023-07-13T05:06:04;5.93;;;3.50;;
8803;SDS011;4438;50.890;4.726;2023-07-13T05:08:30;7.13;;;3.37;;
8803;SDS011;4438;50.890;4.726;2023-07-13T05:10:56;10.00;;;3.70;;
8803;SDS011;4438;50.890;4.726;2023-07-13T05:13:24;9.17;;;3.90;;
8803;SDS011;4438;50.890;4.726;2023-07-13T05:15:58;6.87;;;3.63;;
8803;SDS011;4438;50.890;4.726;2023-07-13T05:18:24;8.67;;;4.20;;
8803;SDS011;4438;50.890;4.726;2023-07-13T05:21:04;10.03;;;3.33;;
8803;SDS011;4438;50.890;4.726;2023-07-13T05:23:31;7.90;;;3.80;;
8803;SDS011;4438;50.890;4.726;2023-07-13T05:25:57;11.97;;;4.40;;
8803;SDS011;4438;50.890;4.726;2023-07-13T05:28:24;7.70;;;3.63;;
8803;SDS011;4438;50.890;4.726;2023-07-13T05:30:50;10.43;;;4.07;;
8803;SDS011;4438;50.890;4.726;2023-07-13T05:33:17;7.90;;;3.60;;
8803;SDS011;4438;50.890;4.726;2023-07-13T05:35:43;7.27;;;4.00;;
8803;SDS011;4438;50.890;4.726;2023-07-13T05:38:09;9.70;;;4.20;;
8803;SDS011;4438;50.890;4.726;2023-07-13T05:40:35;12.37;;;4.40;;
8803;SDS011;4438;50.890;4.726;2023-07-13T05:43:01;7.53;;;3.73;;
8803;SDS011;4438;50.890;4.726;2023-07-13T05:45:27;8.80;;;3.77;;
8803;SDS011;4438;50.890;4.726;2023-07-13T05:47:53;7.23;;;3.80;;
8803;SDS011;4438;50.890;4.726;2023-07-13T05:50:19;8.77;;;3.73;;
8803;SDS011;4438;50.890;4.726;2023-07-13T05:52:46;8.97;;;4.10;;
8803;SDS011;4438;50.890;4.726;2023-07-13T05:55:12;8.47;;;4.43;;
8803;SDS011;4438;50.890;4.726;2023-07-13T05:57:38;11.17;;;4.57;;
8803;SDS011;4438;50.890;4.726;2023-07-13T06:00:04;8.80;;;4.20;;
8803;SDS011;4438;50.890;4.726;2023-07-13T06:02:31;6.87;;;3.63;;
8803;SDS011;4438;50.890;4.726;2023-07-13T06:04:57;9.23;;;4.20;;
8803;SDS011;4438;50.890;4.726;2023-07-13T06:07:23;11.00;;;4.23;;
8803;SDS011;4438;50.890;4.726;2023-07-13T06:09:50;9.43;;;4.00;;
8803;SDS011;4438;50.890;4.726;2023-07-13T06:12:16;10.50;;;4.77;;
8803;SDS011;4438;50.890;4.726;2023-07-13T06:14:42;8.20;;;3.97;;
8803;SDS011;4438;50.890;4.726;2023-07-13T06:17:08;8.90;;;3.67;;
8803;SDS011;4438;50.890;4.726;2023-07-13T06:19:34;6.77;;;3.60;;
8803;SDS011;4438;50.890;4.726;2023-07-13T06:22:01;6.90;;;3.97;;
8803;SDS011;4438;50.890;4.726;2023-07-13T06:24:27;10.57;;;4.60;;
8803;SDS011;4438;50.890;4.726;2023-07-13T06:26:53;11.17;;;4.77;;
8803;SDS011;4438;50.890;4.726;2023-07-13T06:29:19;8.40;;;4.10;;
8803;SDS011;4438;50.890;4.726;2023-07-13T06:31:45;7.67;;;4.10;;
8803;SDS011;4438;50.890;4.726;2023-07-13T06:34:11;7.47;;;3.80;;
8803;SDS011;4438;50.890;4.726;2023-07-13T06:36:37;9.73;;;4.50;;
8803;SDS011;4438;50.890;4.726;2023-07-13T06:39:03;7.90;;;4.00;;
8803;SDS011;4438;50.890;4.726;2023-07-13T06:41:30;9.10;;;4.10;;
8803;SDS011;4438;50.890;4.726;2023-07-13T06:43:56;10.23;;;4.57;;
8803;SDS011;4438;50.890;4.726;2023-07-13T06:46:22;8.53;;;3.80;;
8803;SDS011;4438;50.890;4.726;2023-07-13T06:48:48;7.50;;;3.90;;
8803;SDS011;4438;50.890;4.726;2023-07-13T06:51:14;7.10;;;3.67;;
8803;SDS011;4438;50.890;4.726;2023-07-13T06:53:40;10.97;;;4.53;;
8803;SDS011;4438;50.890;4.726;2023-07-13T06:56:08;12.20;;;4.70;;
8803;SDS011;4438;50.890;4.726;2023-07-13T06:58:35;8.57;;;4.13;;
8803;SDS011;4438;50.890;4.726;2023-07-13T07:01:01;9.27;;;3.87;;
8803;SDS011;4438;50.890;4.726;2023-07-13T07:03:27;7.60;;;4.27;;
8803;SDS011;4438;50.890;4.726;2023-07-13T07:05:53;6.73;;;3.93;;
8803;SDS011;4438;50.890;4.726;2023-07-13T07:08:20;8.57;;;4.30;;
8803;SDS011;4438;50.890;4.726;2023-07-13T07:10:46;8.43;;;4.40;;
8803;SDS011;4438;50.890;4.726;2023-07-13T07:13:12;9.70;;;3.80;;
8803;SDS011;4438;50.890;4.726;2023-07-13T07:15:38;7.17;;;4.00;;
8803;SDS011;4438;50.890;4.726;2023-07-13T07:18:04;7.30;;;4.10;;
8803;SDS011;4438;50.890;4.726;2023-07-13T07:20:30;7.10;;;3.90;;
8803;SDS011;4438;50.890;4.726;2023-07-13T07:22:57;8.63;;;4.40;;
8803;SDS011;4438;50.890;4.726;2023-07-13T07:25:23;10.20;;;4.13;;
8803;SDS011;4438;50.890;4.726;2023-07-13T07:27:49;8.83;;;4.13;;
8803;SDS011;4438;50.890;4.726;2023-07-13T07:30:15;10.17;;;4.73;;
8803;SDS011;4438;50.890;4.726;2023-07-13T07:32:42;8.07;;;3.93;;
8803;SDS011;4438;50.890;4.726;2023-07-13T07:35:08;9.03;;;4.07;;
8803;SDS011;4438;50.890;4.726;2023-07-13T07:37:34;9.03;;;4.23;;
8803;SDS011;4438;50.890;4.726;2023-07-13T07:40:00;8.03;;;4.40;;
8803;SDS011;4438;50.890;4.726;2023-07-13T07:42:26;8.63;;;4.30;;
8803;SDS011;4438;50.890;4.726;2023-07-13T07:44:52;8.40;;;4.27;;
8803;SDS011;4438;50.890;4.726;2023-07-13T07:47:21;7.13;;;3.87;;
8803;SDS011;4438;50.890;4.726;2023-07-13T07:49:49;7.43;;;4.10;;
8803;SDS011;4438;50.890;4.726;2023-07-13T07:52:15;7.13;;;3.77;;
8803;SDS011;4438;50.890;4.726;2023-07-13T07:54:41;8.73;;;4.13;;
8803;SDS011;4438;50.890;4.726;2023-07-13T07:57:07;9.83;;;4.13;;
8803;SDS011;4438;50.890;4.726;2023-07-13T07:59:33;9.83;;;4.20;;
8803;SDS011;4438;50.890;4.726;2023-07-13T08:01:59;7.70;;;4.13;;
8803;SDS011;4438;50.890;4.726;2023-07-13T08:04:27;7.40;;;4.10;;
8803;SDS011;4438;50.890;4.726;2023-07-13T08:06:53;10.30;;;4.17;;
8803;SDS011;4438;50.890;4.726;2023-07-13T08:09:21;7.07;;;3.80;;
8803;SDS011;4438;50.890;4.726;2023-07-13T08:11:47;9.33;;;3.73;;
8803;SDS011;4438;50.890;4.726;2023-07-13T08:14:13;7.83;;;4.03;;
8803;SDS011;4438;50.890;4.726;2023-07-13T08:16:40;9.07;;;4.07;;
8803;SDS011;4438;50.890;4.726;2023-07-13T08:19:07;7.73;;;4.30;;
8803;SDS011;4438;50.890;4.726;2023-07-13T08:21:33;6.00;;;3.70;;
8803;SDS011;4438;50.890;4.726;2023-07-13T08:23:59;8.50;;;3.97;;
8803;SDS011;4438;50.890;4.726;2023-07-13T08:26:26;7.87;;;3.67;;
8803;SDS011;4438;50.890;4.726;2023-07-13T08:28:53;7.93;;;3.93;;
8803;SDS011;4438;50.890;4.726;2023-07-13T08:31:19;6.13;;;3.57;;
8803;SDS011;4438;50.890;4.726;2023-07-13T08:33:46;8.33;;;3.90;;
8803;SDS011;4438;50.890;4.726;2023-07-13T08:36:12;7.63;;;3.50;;
8803;SDS011;4438;50.890;4.726;2023-07-13T08:38:38;8.57;;;3.93;;
8803;SDS011;4438;50.890;4.726;2023-07-13T08:41:12;7.47;;;4.00;;
8803;SDS011;4438;50.890;4.726;2023-07-13T08:43:38;4.93;;;3.17;;
8803;SDS011;4438;50.890;4.726;2023-07-13T08:46:19;6.27;;;3.77;;
8803;SDS011;4438;50.890;4.726;2023-07-13T08:48:53;8.20;;;3.70;;
8803;SDS011;4438;50.890;4.726;2023-07-13T08:53:54;7.00;;;3.70;;
8803;SDS011;4438;50.890;4.726;2023-07-13T08:56:23;6.70;;;3.33;;
8803;SDS011;4438;50.890;4.726;2023-07-13T08:58:53;5.10;;;3.07;;
8803;SDS011;4438;50.890;4.726;2023-07-13T09:04:12;4.83;;;3.13;;
8803;SDS011;4438;50.890;4.726;2023-07-13T09:14:41;4.87;;;2.90;;
8803;SDS011;4438;50.890;4.726;2023-07-13T09:17:17;5.10;;;3.30;;
8803;SDS011;4438;50.890;4.726;2023-07-13T09:19:43;6.60;;;3.50;;
8803;SDS011;4438;50.890;4.726;2023-07-13T09:22:13;5.63;;;3.00;;
8803;SDS011;4438;50.890;4.726;2023-07-13T09:24:45;4.87;;;2.63;;
8803;SDS011;4438;50.890;4.726;2023-07-13T09:27:14;6.17;;;3.17;;
8803;SDS011;4438;50.890;4.726;2023-07-13T09:29:44;4.07;;;2.70;;
8803;SDS011;4438;50.890;4.726;2023-07-13T09:32:12;4.40;;;2.60;;
8803;SDS011;4438;50.890;4.726;2023-07-13T09:34:40;4.73;;;3.13;;
8803;SDS011;4438;50.890;4.726;2023-07-13T09:37:06;6.50;;;2.97;;
8803;SDS011;4438;50.890;4.726;2023-07-13T09:39:41;4.67;;;2.70;;
8803;SDS011;4438;50.890;4.726;2023-07-13T09:44:37;5.63;;;3.30;;
8803;SDS011;4438;50.890;4.726;2023-07-13T09:47:15;5.93;;;3.20;;
8803;SDS011;4438;50.890;4.726;2023-07-13T09:49:42;5.57;;;2.77;;
8803;SDS011;4438;50.890;4.726;2023-07-13T09:52:14;4.60;;;2.80;;
8803;SDS011;4438;50.890;4.726;2023-07-13T09:54:44;4.97;;;2.80;;
8803;SDS011;4438;50.890;4.726;2023-07-13T09:57:28;4.90;;;2.70;;
8803;SDS011;4438;50.890;4.726;2023-07-13T09:59:55;5.50;;;2.87;;
8803;SDS011;4438;50.890;4.726;2023-07-13T10:02:32;6.60;;;3.00;;
8803;SDS011;4438;50.890;4.726;2023-07-13T10:05:00;4.80;;;2.70;;
8803;SDS011;4438;50.890;4.726;2023-07-13T10:07:26;4.77;;;2.30;;
8803;SDS011;4438;50.890;4.726;2023-07-13T10:09:56;7.73;;;2.97;;
8803;SDS011;4438;50.890;4.726;2023-07-13T10:12:23;6.17;;;2.80;;
8803;SDS011;4438;50.890;4.726;2023-07-13T10:14:57;4.27;;;2.90;;
8803;SDS011;4438;50.890;4.726;2023-07-13T10:17:29;5.23;;;2.90;;
8803;SDS011;4438;50.890;4.726;2023-07-13T10:19:57;6.17;;;2.90;;
8803;SDS011;4438;50.890;4.726;2023-07-13T10:22:27;5.30;;;2.80;;
8803;SDS011;4438;50.890;4.726;2023-07-13T10:24:55;5.53;;;2.90;;
8803;SDS011;4438;50.890;4.726;2023-07-13T10:27:29;3.20;;;2.60;;
8803;SDS011;4438;50.890;4.726;2023-07-13T10:32:33;3.33;;;2.17;;
8803;SDS011;4438;50.890;4.726;2023-07-13T10:35:00;3.73;;;2.60;;
8803;SDS011;4438;50.890;4.726;2023-07-13T10:37:44;4.00;;;2.43;;
8803;SDS011;4438;50.890;4.726;2023-07-13T10:40:14;5.03;;;2.80;;
8803;SDS011;4438;50.890;4.726;2023-07-13T10:42:43;4.70;;;2.90;;
8803;SDS011;4438;50.890;4.726;2023-07-13T10:45:12;7.33;;;2.83;;
8803;SDS011;4438;50.890;4.726;2023-07-13T10:47:39;3.80;;;2.50;;
8803;SDS011;4438;50.890;4.726;2023-07-13T10:50:05;5.43;;;2.97;;
8803;SDS011;4438;50.890;4.726;2023-07-13T10:55:04;3.57;;;2.50;;
8803;SDS011;4438;50.890;4.726;2023-07-13T10:57:35;4.27;;;2.60;;
8803;SDS011;4438;50.890;4.726;2023-07-13T11:00:17;3.80;;;2.30;;
8803;SDS011;4438;50.890;4.726;2023-07-13T11:02:43;6.07;;;2.67;;
8803;SDS011;4438;50.890;4.726;2023-07-13T11:07:52;3.63;;;2.43;;
8803;SDS011;4438;50.890;4.726;2023-07-13T11:13:03;4.77;;;2.60;;
8803;SDS011;4438;50.890;4.726;2023-07-13T11:15:31;6.77;;;2.50;;
8803;SDS011;4438;50.890;4.726;2023-07-13T11:18:01;3.13;;;2.40;;
8803;SDS011;4438;50.890;4.726;2023-07-13T11:20:38;4.03;;;2.00;;
8803;SDS011;4438;50.890;4.726;2023-07-13T11:23:09;3.80;;;2.30;;
8803;SDS011;4438;50.890;4.726;2023-07-13T11:25:36;6.43;;;2.50;;
8803;SDS011;4438;50.890;4.726;2023-07-13T11:38:23;5.07;;;2.50;;
8803;SDS011;4438;50.890;4.726;2023-07-13T11:40:53;3.73;;;2.10;;
8803;SDS011;4438;50.890;4.726;2023-07-13T11:43:20;3.77;;;2.10;;
8803;SDS011;4438;50.890;4.726;2023-07-13T11:45:48;5.30;;;2.37;;
8803;SDS011;4438;50.890;4.726;2023-07-13T11:51:05;5.60;;;2.30;;
8803;SDS011;4438;50.890;4.726;2023-07-13T11:53:38;3.30;;;2.30;;
8803;SDS011;4438;50.890;4.726;2023-07-13T11:56:05;2.97;;;2.13;;
8803;SDS011;4438;50.890;4.726;2023-07-13T11:58:32;2.57;;;1.80;;
8803;SDS011;4438;50.890;4.726;2023-07-13T12:00:59;3.33;;;1.90;;
8803;SDS011;4438;50.890;4.726;2023-07-13T12:03:26;4.50;;;2.10;;
8803;SDS011;4438;50.890;4.726;2023-07-13T12:08:23;4.83;;;2.23;;
8803;SDS011;4438;50.890;4.726;2023-07-13T12:10:55;3.07;;;2.03;;
8803;SDS011;4438;50.890;4.726;2023-07-13T12:13:21;3.47;;;2.13;;
8803;SDS011;4438;50.890;4.726;2023-07-13T12:15:48;4.37;;;2.20;;
8803;SDS011;4438;50.890;4.726;2023-07-13T12:18:16;4.00;;;2.17;;
8803;SDS011;4438;50.890;4.726;2023-07-13T12:20:44;3.70;;;2.10;;
8803;SDS011;4438;50.890;4.726;2023-07-13T12:25:55;3.20;;;2.20;;
8803;SDS011;4438;50.890;4.726;2023-07-13T12:28:28;3.47;;;2.20;;
8803;SDS011;4438;50.890;4.726;2023-07-13T12:31:04;4.23;;;1.97;;
8803;SDS011;4438;50.890;4.726;2023-07-13T12:33:32;2.73;;;2.00;;
8803;SDS011;4438;50.890;4.726;2023-07-13T12:36:02;2.83;;;2.00;;
8803;SDS011;4438;50.890;4.726;2023-07-13T12:38:30;4.30;;;2.10;;
8803;SDS011;4438;50.890;4.726;2023-07-13T12:40:56;4.57;;;2.43;;
8803;SDS011;4438;50.890;4.726;2023-07-13T12:43:23;3.63;;;2.70;;
8803;SDS011;4438;50.890;4.726;2023-07-13T12:45:59;7.23;;;2.50;;
8803;SDS011;4438;50.890;4.726;2023-07-13T12:48:27;2.47;;;1.90;;
8803;SDS011;4438;50.890;4.726;2023-07-13T12:50:54;4.03;;;2.27;;
8803;SDS011;4438;50.890;4.726;2023-07-13T12:53:21;5.30;;;2.43;;
8803;SDS011;4438;50.890;4.726;2023-07-13T12:55:49;4.37;;;2.37;;
8803;SDS011;4438;50.890;4.726;2023-07-13T12:58:18;2.87;;;2.40;;
8803;SDS011;4438;50.890;4.726;2023-07-13T13:00:48;3.67;;;2.40;;
8803;SDS011;4438;50.890;4.726;2023-07-13T13:03:26;4.03;;;2.30;;
8803;SDS011;4438;50.890;4.726;2023-07-13T13:06:01;2.57;;;2.30;;
8803;SDS011;4438;50.890;4.726;2023-07-13T13:08:29;3.40;;;2.20;;
8803;SDS011;4438;50.890;4.726;2023-07-13T13:10:55;2.90;;;2.10;;
8803;SDS011;4438;50.890;4.726;2023-07-13T13:13:21;2.30;;;2.10;;
8803;SDS011;4438;50.890;4.726;2023-07-13T13:15:47;2.47;;;2.10;;
8803;SDS011;4438;50.890;4.726;2023-07-13T13:18:20;4.07;;;1.90;;
8803;SDS011;4438;50.890;4.726;2023-07-13T13:20:47;2.63;;;2.37;;
8803;SDS011;4438;50.890;4.726;2023-07-13T13:23:14;3.97;;;2.80;;
8803;SDS011;4438;50.890;4.726;2023-07-13T13:25:42;2.80;;;2.13;;
8803;SDS011;4438;50.890;4.726;2023-07-13T13:28:12;3.50;;;2.30;;
8803;SDS011;4438;50.890;4.726;2023-07-13T13:30:39;3.33;;;2.17;;
8803;SDS011;4438;50.890;4.726;2023-07-13T13:33:08;2.67;;;2.07;;
8803;SDS011;4438;50.890;4.726;2023-07-13T13:35:34;2.93;;;2.30;;
8803;SDS011;4438;50.890;4.726;2023-07-13T13:38:00;3.10;;;2.50;;
8803;SDS011;4438;50.890;4.726;2023-07-13T13:40:26;3.87;;;2.53;;
8803;SDS011;4438;50.890;4.726;2023-07-13T13:42:53;2.50;;;2.30;;
8803;SDS011;4438;50.890;4.726;2023-07-13T13:45:21;3.40;;;2.27;;
8803;SDS011;4438;50.890;4.726;2023-07-13T13:47:49;2.80;;;2.20;;
8803;SDS011;4438;50.890;4.726;2023-07-13T13:50:21;3.63;;;2.43;;
8803;SDS011;4438;50.890;4.726;2023-07-13T13:52:47;3.17;;;2.07;;
8803;SDS011;4438;50.890;4.726;2023-07-13T13:57:40;3.53;;;2.37;;
8803;SDS011;4438;50.890;4.726;2023-07-13T14:00:06;2.30;;;2.10;;
8803;SDS011;4438;50.890;4.726;2023-07-13T14:02:34;3.73;;;2.23;;
8803;SDS011;4438;50.890;4.726;2023-07-13T14:05:01;3.10;;;2.27;;
8803;SDS011;4438;50.890;4.726;2023-07-13T14:07:28;3.20;;;2.20;;
8803;SDS011;4438;50.890;4.726;2023-07-13T14:09:57;3.57;;;2.60;;
8803;SDS011;4438;50.890;4.726;2023-07-13T14:12:24;2.60;;;1.97;;
8803;SDS011;4438;50.890;4.726;2023-07-13T14:14:53;2.53;;;2.30;;
8803;SDS011;4438;50.890;4.726;2023-07-13T14:17:20;2.97;;;2.20;;
8803;SDS011;4438;50.890;4.726;2023-07-13T14:19:50;2.30;;;2.10;;
8803;SDS011;4438;50.890;4.726;2023-07-13T14:22:22;2.57;;;2.10;;
8803;SDS011;4438;50.890;4.726;2023-07-13T14:24:48;3.03;;;2.50;;
8803;SDS011;4438;50.890;4.726;2023-07-13T14:27:14;3.03;;;2.23;;
8803;SDS011;4438;50.890;4.726;2023-07-13T14:29:40;4.03;;;2.40;;
8803;SDS011;4438;50.890;4.726;2023-07-13T14:32:10;2.33;;;1.83;;
8803;SDS011;4438;50.890;4.726;2023-07-13T14:34:36;3.53;;;2.50;;
8803;SDS011;4438;50.890;4.726;2023-07-13T14:37:03;2.67;;;1.80;;
8803;SDS011;4438;50.890;4.726;2023-07-13T14:39:29;3.30;;;2.10;;
8803;SDS011;4438;50.890;4.726;2023-07-13T14:41:56;2.40;;;2.10;;
8803;SDS011;4438;50.890;4.726;2023-07-13T14:44:27;2.63;;;2.20;;
8803;SDS011;4438;50.890;4.726;2023-07-13T14:46:57;4.57;;;2.43;;
8803;SDS011;4438;50.890;4.726;2023-07-13T14:51:49;3.50;;;2.10;;
8803;SDS011;4438;50.890;4.726;2023-07-13T14:54:15;2.20;;;1.87;;
8803;SDS011;4438;50.890;4.726;2023-07-13T14:56:41;3.23;;;1.97;;
8803;SDS011;4438;50.890;4.726;2023-07-13T14:59:07;2.57;;;1.80;;
8803;SDS011;4438;50.890;4.726;2023-07-13T15:01:34;2.67;;;1.90;;
8803;SDS011;4438;50.890;4.726;2023-07-13T15:04:00;3.80;;;2.03;;
8803;SDS011;4438;50.890;4.726;2023-07-13T15:06:27;3.57;;;2.27;;
8803;SDS011;4438;50.890;4.726;2023-07-13T15:08:54;3.63;;;2.43;;
8803;SDS011;4438;50.890;4.726;2023-07-13T15:11:21;4.27;;;2.17;;
8803;SDS011;4438;50.890;4.726;2023-07-13T15:13:47;3.13;;;2.17;;
8803;SDS011;4438;50.890;4.726;2023-07-13T15:16:15;4.57;;;2.30;;
8803;SDS011;4438;50.890;4.726;2023-07-13T15:18:42;2.43;;;2.23;;
8803;SDS011;4438;50.890;4.726;2023-07-13T15:21:09;2.40;;;1.90;;
8803;SDS011;4438;50.890;4.726;2023-07-13T15:23:35;3.00;;;2.30;;
8803;SDS011;4438;50.890;4.726;2023-07-13T15:26:01;3.47;;;2.20;;
8803;SDS011;4438;50.890;4.726;2023-07-13T15:28:28;2.20;;;1.87;;
8803;SDS011;4438;50.890;4.726;2023-07-13T15:30:54;2.87;;;2.30;;
8803;SDS011;4438;50.890;4.726;2023-07-13T15:35:47;3.53;;;2.10;;
8803;SDS011;4438;50.890;4.726;2023-07-13T15:38:20;3.20;;;2.10;;
8803;SDS011;4438;50.890;4.726;2023-07-13T15:40:47;2.57;;;2.17;;
8803;SDS011;4438;50.890;4.726;2023-07-13T15:43:14;2.20;;;2.00;;
8803;SDS011;4438;50.890;4.726;2023-07-13T15:45:41;3.70;;;2.33;;
8803;SDS011;4438;50.890;4.726;2023-07-13T15:50:45;2.77;;;2.17;;
8803;SDS011;4438;50.890;4.726;2023-07-13T15:53:12;2.30;;;1.93;;
8803;SDS011;4438;50.890;4.726;2023-07-13T15:55:39;2.30;;;2.10;;
8803;SDS011;4438;50.890;4.726;2023-07-13T15:58:07;3.70;;;2.10;;
8803;SDS011;4438;50.890;4.726;2023-07-13T16:00:35;2.77;;;2.20;;
8803;SDS011;4438;50.890;4.726;2023-07-13T16:03:01;2.30;;;2.07;;
8803;SDS011;4438;50.890;4.726;2023-07-13T16:05:27;4.27;;;2.60;;
8803;SDS011;4438;50.890;4.726;2023-07-13T16:07:54;2.93;;;2.27;;
8803;SDS011;4438;50.890;4.726;2023-07-13T16:10:30;2.47;;;2.13;;
8803;SDS011;4438;50.890;4.726;2023-07-13T16:12:57;3.72;;;2.40;;